sensor_id;sensor_type;location;lat;lon;timestamp;P1;durP1;ratioP1;P2;durP2;ratioP2
43487;SDS011;29078;41.932;25.554;2023-07-09T00:01:47;6.82;;;5.60;;
43487;SDS011;29078;41.932;25.554;2023-07-09T00:04:12;6.07;;;5.38;;
43487;SDS011;29078;41.932;25.554;2023-07-09T00:06:41;6.53;;;5.88;;
43487;SDS011;29078;41.932;25.554;2023-07-09T00:09:20;7.38;;;5.72;;
43487;SDS011;29078;41.932;25.554;2023-07-09T00:11:46;8.02;;;5.10;;
43487;SDS011;29078;41.932;25.554;2023-07-09T00:14:13;6.18;;;4.85;;
43487;SDS011;29078;41.932;25.554;2023-07-09T00:16:40;6.47;;;4.40;;
43487;SDS011;29078;41.932;25.554;2023-07-09T00:19:10;6.00;;;5.40;;
43487;SDS011;29078;41.932;25.554;2023-07-09T00:21:42;5.75;;;4.93;;
43487;SDS011;29078;41.932;25.554;2023-07-09T00:24:10;6.82;;;4.63;;
43487;SDS011;29078;41.932;25.554;2023-07-09T00:26:36;4.50;;;4.10;;
43487;SDS011;29078;41.932;25.554;2023-07-09T00:29:03;7.15;;;4.80;;
43487;SDS011;29078;41.932;25.554;2023-07-09T00:31:29;6.75;;;4.88;;
43487;SDS011;29078;41.932;25.554;2023-07-09T00:33:54;5.45;;;4.03;;
43487;SDS011;29078;41.932;25.554;2023-07-09T00:36:27;5.00;;;4.32;;
43487;SDS011;29078;41.932;25.554;2023-07-09T00:38:56;5.80;;;4.10;;
43487;SDS011;29078;41.932;25.554;2023-07-09T00:41:24;8.07;;;4.25;;
43487;SDS011;29078;41.932;25.554;2023-07-09T00:43:51;8.88;;;4.47;;
43487;SDS011;29078;41.932;25.554;2023-07-09T00:48:49;7.38;;;4.07;;
43487;SDS011;29078;41.932;25.554;2023-07-09T00:51:19;8.45;;;5.15;;
43487;SDS011;29078;41.932;25.554;2023-07-09T00:53:48;5.35;;;4.05;;
43487;SDS011;29078;41.932;25.554;2023-07-09T00:56:21;7.25;;;4.63;;
43487;SDS011;29078;41.932;25.554;2023-07-09T00:58:54;6.20;;;4.72;;
43487;SDS011;29078;41.932;25.554;2023-07-09T01:01:25;5.85;;;4.72;;
43487;SDS011;29078;41.932;25.554;2023-07-09T01:03:52;5.70;;;4.65;;
43487;SDS011;29078;41.932;25.554;2023-07-09T01:06:28;6.38;;;4.60;;
43487;SDS011;29078;41.932;25.554;2023-07-09T01:08:57;4.85;;;4.35;;
43487;SDS011;29078;41.932;25.554;2023-07-09T01:11:26;5.88;;;4.80;;
43487;SDS011;29078;41.932;25.554;2023-07-09T01:13:52;7.43;;;4.40;;
43487;SDS011;29078;41.932;25.554;2023-07-09T01:16:34;5.43;;;4.53;;
43487;SDS011;29078;41.932;25.554;2023-07-09T01:19:03;6.38;;;4.68;;
43487;SDS011;29078;41.932;25.554;2023-07-09T01:21:29;6.38;;;4.72;;
43487;SDS011;29078;41.932;25.554;2023-07-09T01:23:56;7.18;;;4.28;;
43487;SDS011;29078;41.932;25.554;2023-07-09T01:26:23;8.20;;;4.45;;
43487;SDS011;29078;41.932;25.554;2023-07-09T01:28:51;5.85;;;4.40;;
43487;SDS011;29078;41.932;25.554;2023-07-09T01:31:18;6.75;;;5.15;;
43487;SDS011;29078;41.932;25.554;2023-07-09T01:33:45;5.90;;;4.55;;
43487;SDS011;29078;41.932;25.554;2023-07-09T01:36:11;7.40;;;4.50;;
43487;SDS011;29078;41.932;25.554;2023-07-09T01:38:42;5.97;;;4.45;;
43487;SDS011;29078;41.932;25.554;2023-07-09T01:41:08;5.10;;;4.60;;
43487;SDS011;29078;41.932;25.554;2023-07-09T01:43:39;6.68;;;4.70;;
43487;SDS011;29078;41.932;25.554;2023-07-09T01:46:06;5.40;;;4.95;;
43487;SDS011;29078;41.932;25.554;2023-07-09T01:48:33;5.20;;;4.70;;
43487;SDS011;29078;41.932;25.554;2023-07-09T01:51:06;5.57;;;4.85;;
43487;SDS011;29078;41.932;25.554;2023-07-09T01:53:32;5.70;;;5.07;;
43487;SDS011;29078;41.932;25.554;2023-07-09T01:55:58;8.48;;;5.40;;
43487;SDS011;29078;41.932;25.554;2023-07-09T01:58:24;6.22;;;5.60;;
43487;SDS011;29078;41.932;25.554;2023-07-09T02:00:50;6.03;;;5.00;;
43487;SDS011;29078;41.932;25.554;2023-07-09T02:03:15;8.25;;;5.57;;
43487;SDS011;29078;41.932;25.554;2023-07-09T02:05:43;6.18;;;5.30;;
43487;SDS011;29078;41.932;25.554;2023-07-09T02:08:08;6.97;;;5.20;;
43487;SDS011;29078;41.932;25.554;2023-07-09T02:10:33;6.55;;;5.68;;
43487;SDS011;29078;41.932;25.554;2023-07-09T02:12:59;7.38;;;5.45;;
43487;SDS011;29078;41.932;25.554;2023-07-09T02:15:24;8.30;;;5.78;;
43487;SDS011;29078;41.932;25.554;2023-07-09T02:17:50;5.80;;;5.30;;
43487;SDS011;29078;41.932;25.554;2023-07-09T02:20:17;7.13;;;5.75;;
43487;SDS011;29078;41.932;25.554;2023-07-09T02:22:44;5.88;;;5.13;;
43487;SDS011;29078;41.932;25.554;2023-07-09T02:25:10;6.65;;;5.63;;
43487;SDS011;29078;41.932;25.554;2023-07-09T02:27:36;8.02;;;5.22;;
43487;SDS011;29078;41.932;25.554;2023-07-09T02:30:03;7.85;;;5.53;;
43487;SDS011;29078;41.932;25.554;2023-07-09T02:32:30;8.00;;;4.90;;
43487;SDS011;29078;41.932;25.554;2023-07-09T02:34:55;8.48;;;5.70;;
43487;SDS011;29078;41.932;25.554;2023-07-09T02:37:21;6.38;;;5.68;;
43487;SDS011;29078;41.932;25.554;2023-07-09T02:39:48;7.25;;;6.03;;
43487;SDS011;29078;41.932;25.554;2023-07-09T02:42:15;7.20;;;5.80;;
43487;SDS011;29078;41.932;25.554;2023-07-09T02:44:42;6.80;;;5.50;;
43487;SDS011;29078;41.932;25.554;2023-07-09T02:47:08;6.65;;;5.70;;
43487;SDS011;29078;41.932;25.554;2023-07-09T02:49:34;5.82;;;5.32;;
43487;SDS011;29078;41.932;25.554;2023-07-09T02:52:00;9.18;;;6.38;;
43487;SDS011;29078;41.932;25.554;2023-07-09T02:54:26;5.95;;;5.30;;
43487;SDS011;29078;41.932;25.554;2023-07-09T02:56:52;5.57;;;5.07;;
43487;SDS011;29078;41.932;25.554;2023-07-09T02:59:17;6.45;;;5.68;;
43487;SDS011;29078;41.932;25.554;2023-07-09T03:01:43;8.30;;;5.72;;
43487;SDS011;29078;41.932;25.554;2023-07-09T03:04:09;7.53;;;5.82;;
43487;SDS011;29078;41.932;25.554;2023-07-09T03:06:35;9.75;;;5.25;;
43487;SDS011;29078;41.932;25.554;2023-07-09T03:09:01;6.88;;;5.70;;
43487;SDS011;29078;41.932;25.554;2023-07-09T03:11:29;8.15;;;5.78;;
43487;SDS011;29078;41.932;25.554;2023-07-09T03:13:56;8.07;;;5.78;;
43487;SDS011;29078;41.932;25.554;2023-07-09T03:16:22;8.23;;;6.20;;
43487;SDS011;29078;41.932;25.554;2023-07-09T03:18:48;6.32;;;5.40;;
43487;SDS011;29078;41.932;25.554;2023-07-09T03:21:14;6.38;;;5.60;;
43487;SDS011;29078;41.932;25.554;2023-07-09T03:23:40;6.90;;;5.72;;
43487;SDS011;29078;41.932;25.554;2023-07-09T03:26:06;6.25;;;5.47;;
43487;SDS011;29078;41.932;25.554;2023-07-09T03:28:31;9.52;;;5.93;;
43487;SDS011;29078;41.932;25.554;2023-07-09T03:30:57;8.18;;;6.03;;
43487;SDS011;29078;41.932;25.554;2023-07-09T03:33:23;9.15;;;6.00;;
43487;SDS011;29078;41.932;25.554;2023-07-09T03:35:49;6.63;;;5.32;;
43487;SDS011;29078;41.932;25.554;2023-07-09T03:38:16;6.40;;;5.63;;
43487;SDS011;29078;41.932;25.554;2023-07-09T03:40:41;5.82;;;4.85;;
43487;SDS011;29078;41.932;25.554;2023-07-09T03:43:07;5.20;;;4.70;;
43487;SDS011;29078;41.932;25.554;2023-07-09T03:45:34;8.02;;;5.32;;
43487;SDS011;29078;41.932;25.554;2023-07-09T03:48:00;6.80;;;5.78;;
43487;SDS011;29078;41.932;25.554;2023-07-09T03:50:26;7.05;;;5.43;;
43487;SDS011;29078;41.932;25.554;2023-07-09T03:52:52;6.47;;;4.75;;
43487;SDS011;29078;41.932;25.554;2023-07-09T03:55:18;7.35;;;4.55;;
43487;SDS011;29078;41.932;25.554;2023-07-09T03:57:43;7.70;;;5.00;;
43487;SDS011;29078;41.932;25.554;2023-07-09T04:00:09;5.97;;;5.20;;
43487;SDS011;29078;41.932;25.554;2023-07-09T04:02:35;8.45;;;5.18;;
43487;SDS011;29078;41.932;25.554;2023-07-09T04:05:01;6.32;;;4.53;;
43487;SDS011;29078;41.932;25.554;2023-07-09T04:07:28;7.25;;;4.45;;
43487;SDS011;29078;41.932;25.554;2023-07-09T04:09:53;6.65;;;4.82;;
43487;SDS011;29078;41.932;25.554;2023-07-09T04:12:19;5.68;;;5.13;;
43487;SDS011;29078;41.932;25.554;2023-07-09T04:14:44;7.63;;;4.72;;
43487;SDS011;29078;41.932;25.554;2023-07-09T04:17:10;6.65;;;4.93;;
43487;SDS011;29078;41.932;25.554;2023-07-09T04:19:35;8.35;;;5.30;;
43487;SDS011;29078;41.932;25.554;2023-07-09T04:22:01;7.80;;;5.22;;
43487;SDS011;29078;41.932;25.554;2023-07-09T04:24:26;6.88;;;5.70;;
43487;SDS011;29078;41.932;25.554;2023-07-09T04:26:52;6.10;;;5.20;;
43487;SDS011;29078;41.932;25.554;2023-07-09T04:29:21;6.80;;;5.47;;
43487;SDS011;29078;41.932;25.554;2023-07-09T04:31:49;5.95;;;5.20;;
43487;SDS011;29078;41.932;25.554;2023-07-09T04:34:14;6.95;;;5.85;;
43487;SDS011;29078;41.932;25.554;2023-07-09T04:36:40;6.53;;;5.88;;
43487;SDS011;29078;41.932;25.554;2023-07-09T04:39:05;6.40;;;5.80;;
43487;SDS011;29078;41.932;25.554;2023-07-09T04:41:31;10.52;;;6.38;;
43487;SDS011;29078;41.932;25.554;2023-07-09T04:43:58;8.07;;;6.28;;
43487;SDS011;29078;41.932;25.554;2023-07-09T04:46:24;8.45;;;5.70;;
43487;SDS011;29078;41.932;25.554;2023-07-09T04:48:49;8.70;;;5.90;;
43487;SDS011;29078;41.932;25.554;2023-07-09T04:51:15;9.70;;;6.72;;
43487;SDS011;29078;41.932;25.554;2023-07-09T04:53:40;7.47;;;5.90;;
43487;SDS011;29078;41.932;25.554;2023-07-09T04:56:07;7.97;;;6.18;;
43487;SDS011;29078;41.932;25.554;2023-07-09T04:58:33;6.80;;;5.40;;
43487;SDS011;29078;41.932;25.554;2023-07-09T05:00:59;6.60;;;5.90;;
43487;SDS011;29078;41.932;25.554;2023-07-09T05:03:25;10.07;;;6.75;;
43487;SDS011;29078;41.932;25.554;2023-07-09T05:05:51;7.85;;;6.05;;
43487;SDS011;29078;41.932;25.554;2023-07-09T05:08:16;9.93;;;6.57;;
43487;SDS011;29078;41.932;25.554;2023-07-09T05:13:12;7.93;;;6.38;;
43487;SDS011;29078;41.932;25.554;2023-07-09T05:15:41;8.18;;;6.05;;
43487;SDS011;29078;41.932;25.554;2023-07-09T05:18:12;9.40;;;5.88;;
43487;SDS011;29078;41.932;25.554;2023-07-09T05:20:39;8.25;;;5.53;;
43487;SDS011;29078;41.932;25.554;2023-07-09T05:23:05;5.78;;;5.28;;
43487;SDS011;29078;41.932;25.554;2023-07-09T05:25:30;7.78;;;5.00;;
43487;SDS011;29078;41.932;25.554;2023-07-09T05:27:56;6.20;;;5.32;;
43487;SDS011;29078;41.932;25.554;2023-07-09T05:30:21;5.78;;;5.28;;
43487;SDS011;29078;41.932;25.554;2023-07-09T05:32:47;7.38;;;5.28;;
43487;SDS011;29078;41.932;25.554;2023-07-09T05:35:12;6.53;;;5.85;;
43487;SDS011;29078;41.932;25.554;2023-07-09T05:37:38;7.63;;;5.10;;
43487;SDS011;29078;41.932;25.554;2023-07-09T05:40:05;6.32;;;5.30;;
43487;SDS011;29078;41.932;25.554;2023-07-09T05:42:31;5.22;;;4.70;;
43487;SDS011;29078;41.932;25.554;2023-07-09T05:44:57;6.63;;;5.65;;
43487;SDS011;29078;41.932;25.554;2023-07-09T05:47:23;6.18;;;5.18;;
43487;SDS011;29078;41.932;25.554;2023-07-09T05:49:49;9.55;;;5.65;;
43487;SDS011;29078;41.932;25.554;2023-07-09T05:52:19;7.10;;;5.43;;
43487;SDS011;29078;41.932;25.554;2023-07-09T05:54:46;7.20;;;5.43;;
43487;SDS011;29078;41.932;25.554;2023-07-09T05:57:13;8.95;;;5.15;;
43487;SDS011;29078;41.932;25.554;2023-07-09T05:59:39;5.47;;;4.53;;
43487;SDS011;29078;41.932;25.554;2023-07-09T06:02:04;7.05;;;5.28;;
43487;SDS011;29078;41.932;25.554;2023-07-09T06:04:36;6.05;;;5.38;;
43487;SDS011;29078;41.932;25.554;2023-07-09T06:07:01;5.82;;;5.18;;
43487;SDS011;29078;41.932;25.554;2023-07-09T06:09:28;7.80;;;4.85;;
43487;SDS011;29078;41.932;25.554;2023-07-09T06:11:54;6.57;;;4.78;;
43487;SDS011;29078;41.932;25.554;2023-07-09T06:14:19;7.38;;;4.88;;
43487;SDS011;29078;41.932;25.554;2023-07-09T06:16:45;4.97;;;4.38;;
43487;SDS011;29078;41.932;25.554;2023-07-09T06:19:10;6.40;;;4.55;;
43487;SDS011;29078;41.932;25.554;2023-07-09T06:21:35;6.40;;;4.18;;
43487;SDS011;29078;41.932;25.554;2023-07-09T06:24:01;7.40;;;4.47;;
43487;SDS011;29078;41.932;25.554;2023-07-09T06:26:26;5.45;;;4.18;;
43487;SDS011;29078;41.932;25.554;2023-07-09T06:28:52;4.75;;;4.25;;
43487;SDS011;29078;41.932;25.554;2023-07-09T06:31:17;5.45;;;4.38;;
43487;SDS011;29078;41.932;25.554;2023-07-09T06:33:45;5.25;;;4.13;;
43487;SDS011;29078;41.932;25.554;2023-07-09T06:36:12;5.32;;;4.28;;
43487;SDS011;29078;41.932;25.554;2023-07-09T06:38:37;7.43;;;4.10;;
43487;SDS011;29078;41.932;25.554;2023-07-09T06:41:03;6.93;;;4.50;;
43487;SDS011;29078;41.932;25.554;2023-07-09T06:43:28;5.10;;;3.97;;
43487;SDS011;29078;41.932;25.554;2023-07-09T06:45:55;6.13;;;4.10;;
43487;SDS011;29078;41.932;25.554;2023-07-09T06:48:27;6.85;;;4.30;;
43487;SDS011;29078;41.932;25.554;2023-07-09T06:50:54;5.72;;;4.03;;
43487;SDS011;29078;41.932;25.554;2023-07-09T06:53:21;5.85;;;4.13;;
43487;SDS011;29078;41.932;25.554;2023-07-09T06:55:47;6.47;;;4.05;;
43487;SDS011;29078;41.932;25.554;2023-07-09T06:58:15;5.00;;;4.38;;
43487;SDS011;29078;41.932;25.554;2023-07-09T07:00:41;4.78;;;3.97;;
43487;SDS011;29078;41.932;25.554;2023-07-09T07:03:06;5.50;;;3.97;;
43487;SDS011;29078;41.932;25.554;2023-07-09T07:05:32;4.38;;;3.55;;
43487;SDS011;29078;41.932;25.554;2023-07-09T07:07:58;6.00;;;3.67;;
43487;SDS011;29078;41.932;25.554;2023-07-09T07:10:24;4.82;;;3.25;;
43487;SDS011;29078;41.932;25.554;2023-07-09T07:12:51;4.93;;;3.28;;
43487;SDS011;29078;41.932;25.554;2023-07-09T07:15:17;7.63;;;3.35;;
43487;SDS011;29078;41.932;25.554;2023-07-09T07:17:43;4.25;;;3.60;;
43487;SDS011;29078;41.932;25.554;2023-07-09T07:20:09;4.97;;;3.30;;
43487;SDS011;29078;41.932;25.554;2023-07-09T07:22:36;5.30;;;3.45;;
43487;SDS011;29078;41.932;25.554;2023-07-09T07:25:02;3.97;;;3.53;;
43487;SDS011;29078;41.932;25.554;2023-07-09T07:27:29;3.35;;;3.05;;
43487;SDS011;29078;41.932;25.554;2023-07-09T07:29:54;5.82;;;3.58;;
43487;SDS011;29078;41.932;25.554;2023-07-09T07:32:20;6.60;;;3.55;;
43487;SDS011;29078;41.932;25.554;2023-07-09T07:34:46;3.80;;;3.30;;
43487;SDS011;29078;41.932;25.554;2023-07-09T07:37:12;5.18;;;2.85;;
43487;SDS011;29078;41.932;25.554;2023-07-09T07:39:38;3.42;;;3.13;;
43487;SDS011;29078;41.932;25.554;2023-07-09T07:42:03;3.67;;;3.30;;
43487;SDS011;29078;41.932;25.554;2023-07-09T07:44:29;3.40;;;2.75;;
43487;SDS011;29078;41.932;25.554;2023-07-09T07:46:54;5.10;;;3.40;;
43487;SDS011;29078;41.932;25.554;2023-07-09T07:49:20;5.18;;;3.10;;
43487;SDS011;29078;41.932;25.554;2023-07-09T07:51:45;6.40;;;3.55;;
43487;SDS011;29078;41.932;25.554;2023-07-09T07:54:10;7.45;;;3.30;;
43487;SDS011;29078;41.932;25.554;2023-07-09T07:56:36;4.28;;;2.65;;
43487;SDS011;29078;41.932;25.554;2023-07-09T07:59:02;4.35;;;3.08;;
43487;SDS011;29078;41.932;25.554;2023-07-09T08:01:28;4.43;;;3.10;;
43487;SDS011;29078;41.932;25.554;2023-07-09T08:03:54;4.40;;;3.08;;
43487;SDS011;29078;41.932;25.554;2023-07-09T08:06:19;7.25;;;3.08;;
43487;SDS011;29078;41.932;25.554;2023-07-09T08:08:45;3.40;;;3.10;;
43487;SDS011;29078;41.932;25.554;2023-07-09T08:11:11;5.53;;;3.15;;
43487;SDS011;29078;41.932;25.554;2023-07-09T08:13:37;4.97;;;3.67;;
43487;SDS011;29078;41.932;25.554;2023-07-09T08:16:06;3.72;;;3.15;;
43487;SDS011;29078;41.932;25.554;2023-07-09T08:18:33;3.60;;;3.30;;
43487;SDS011;29078;41.932;25.554;2023-07-09T08:20:59;5.22;;;3.22;;
43487;SDS011;29078;41.932;25.554;2023-07-09T08:23:25;5.28;;;3.53;;
43487;SDS011;29078;41.932;25.554;2023-07-09T08:25:57;5.05;;;3.70;;
43487;SDS011;29078;41.932;25.554;2023-07-09T08:28:25;8.18;;;3.85;;
43487;SDS011;29078;41.932;25.554;2023-07-09T08:30:52;3.10;;;2.80;;
43487;SDS011;29078;41.932;25.554;2023-07-09T08:33:18;3.35;;;3.05;;
43487;SDS011;29078;41.932;25.554;2023-07-09T08:35:43;4.78;;;3.05;;
43487;SDS011;29078;41.932;25.554;2023-07-09T08:38:09;5.22;;;3.47;;
43487;SDS011;29078;41.932;25.554;2023-07-09T08:40:41;3.30;;;3.00;;
43487;SDS011;29078;41.932;25.554;2023-07-09T08:43:33;4.40;;;2.80;;
43487;SDS011;29078;41.932;25.554;2023-07-09T08:49:21;4.97;;;3.25;;
43487;SDS011;29078;41.932;25.554;2023-07-09T08:51:54;3.40;;;2.88;;
43487;SDS011;29078;41.932;25.554;2023-07-09T08:56:51;4.43;;;3.55;;
43487;SDS011;29078;41.932;25.554;2023-07-09T08:59:17;3.63;;;2.65;;
43487;SDS011;29078;41.932;25.554;2023-07-09T09:01:53;4.05;;;3.13;;
43487;SDS011;29078;41.932;25.554;2023-07-09T09:04:27;3.65;;;3.17;;
43487;SDS011;29078;41.932;25.554;2023-07-09T09:06:59;4.25;;;2.80;;
43487;SDS011;29078;41.932;25.554;2023-07-09T09:14:30;4.00;;;2.70;;
43487;SDS011;29078;41.932;25.554;2023-07-09T09:16:59;5.38;;;2.90;;
43487;SDS011;29078;41.932;25.554;2023-07-09T09:19:28;4.75;;;2.85;;
43487;SDS011;29078;41.932;25.554;2023-07-09T09:22:04;3.75;;;2.83;;
43487;SDS011;29078;41.932;25.554;2023-07-09T09:24:38;5.88;;;3.10;;
43487;SDS011;29078;41.932;25.554;2023-07-09T09:27:19;5.18;;;3.58;;
43487;SDS011;29078;41.932;25.554;2023-07-09T09:29:44;4.43;;;3.20;;
43487;SDS011;29078;41.932;25.554;2023-07-09T09:32:17;3.58;;;2.88;;
43487;SDS011;29078;41.932;25.554;2023-07-09T09:34:47;4.13;;;2.80;;
43487;SDS011;29078;41.932;25.554;2023-07-09T09:37:14;4.10;;;3.13;;
43487;SDS011;29078;41.932;25.554;2023-07-09T09:39:49;2.97;;;2.42;;
43487;SDS011;29078;41.932;25.554;2023-07-09T09:42:14;3.42;;;2.55;;
43487;SDS011;29078;41.932;25.554;2023-07-09T09:44:43;4.22;;;2.88;;
43487;SDS011;29078;41.932;25.554;2023-07-09T09:47:10;3.70;;;2.60;;
43487;SDS011;29078;41.932;25.554;2023-07-09T09:49:40;3.42;;;2.90;;
43487;SDS011;29078;41.932;25.554;2023-07-09T09:52:10;4.45;;;3.00;;
43487;SDS011;29078;41.932;25.554;2023-07-09T09:54:40;5.53;;;2.85;;
43487;SDS011;29078;41.932;25.554;2023-07-09T09:57:15;3.65;;;3.00;;
43487;SDS011;29078;41.932;25.554;2023-07-09T09:59:42;4.10;;;2.63;;
43487;SDS011;29078;41.932;25.554;2023-07-09T10:02:17;3.53;;;3.00;;
43487;SDS011;29078;41.932;25.554;2023-07-09T10:04:44;3.88;;;3.10;;
43487;SDS011;29078;41.932;25.554;2023-07-09T10:07:13;3.65;;;2.95;;
43487;SDS011;29078;41.932;25.554;2023-07-09T10:10:01;3.78;;;2.90;;
43487;SDS011;29078;41.932;25.554;2023-07-09T10:12:36;3.10;;;2.80;;
43487;SDS011;29078;41.932;25.554;2023-07-09T10:39:54;3.67;;;3.08;;
43487;SDS011;29078;41.932;25.554;2023-07-09T10:42:24;4.50;;;3.40;;
43487;SDS011;29078;41.932;25.554;2023-07-09T10:45:16;3.35;;;2.65;;
43487;SDS011;29078;41.932;25.554;2023-07-09T10:47:48;3.80;;;3.10;;
43487;SDS011;29078;41.932;25.554;2023-07-09T10:52:53;6.43;;;3.38;;
43487;SDS011;29078;41.932;25.554;2023-07-09T10:58:21;4.05;;;2.97;;
43487;SDS011;29078;41.932;25.554;2023-07-09T11:00:55;3.20;;;2.90;;
43487;SDS011;29078;41.932;25.554;2023-07-09T11:03:33;3.15;;;2.78;;
43487;SDS011;29078;41.932;25.554;2023-07-09T11:06:19;3.58;;;3.25;;
43487;SDS011;29078;41.932;25.554;2023-07-09T11:08:47;5.20;;;2.88;;
43487;SDS011;29078;41.932;25.554;2023-07-09T11:11:22;3.03;;;2.72;;
43487;SDS011;29078;41.932;25.554;2023-07-09T11:14:17;4.07;;;3.60;;
43487;SDS011;29078;41.932;25.554;2023-07-09T11:16:48;5.30;;;4.80;;
43487;SDS011;29078;41.932;25.554;2023-07-09T11:19:18;3.35;;;3.05;;
43487;SDS011;29078;41.932;25.554;2023-07-09T11:21:57;3.72;;;2.90;;
43487;SDS011;29078;41.932;25.554;2023-07-09T11:27:49;3.42;;;2.40;;
43487;SDS011;29078;41.932;25.554;2023-07-09T11:30:31;2.60;;;2.40;;
43487;SDS011;29078;41.932;25.554;2023-07-09T11:33:02;2.92;;;2.67;;
43487;SDS011;29078;41.932;25.554;2023-07-09T11:38:07;2.60;;;2.20;;
43487;SDS011;29078;41.932;25.554;2023-07-09T11:40:50;3.20;;;2.90;;
43487;SDS011;29078;41.932;25.554;2023-07-09T11:44:00;4.50;;;2.90;;
43487;SDS011;29078;41.932;25.554;2023-07-09T11:46:14;5.15;;;2.97;;
43487;SDS011;29078;41.932;25.554;2023-07-09T11:48:43;3.10;;;2.70;;
43487;SDS011;29078;41.932;25.554;2023-07-09T11:51:34;3.85;;;3.10;;
43487;SDS011;29078;41.932;25.554;2023-07-09T11:54:02;5.05;;;3.13;;
43487;SDS011;29078;41.932;25.554;2023-07-09T11:56:28;3.65;;;2.80;;
43487;SDS011;29078;41.932;25.554;2023-07-09T11:58:55;3.03;;;2.72;;
43487;SDS011;29078;41.932;25.554;2023-07-09T12:01:43;3.92;;;2.70;;
43487;SDS011;29078;41.932;25.554;2023-07-09T12:04:17;3.67;;;2.83;;
43487;SDS011;29078;41.932;25.554;2023-07-09T12:06:44;2.83;;;2.63;;
43487;SDS011;29078;41.932;25.554;2023-07-09T12:09:16;3.17;;;2.40;;
43487;SDS011;29078;41.932;25.554;2023-07-09T12:11:44;4.53;;;2.70;;
43487;SDS011;29078;41.932;25.554;2023-07-09T12:14:16;3.65;;;2.50;;
43487;SDS011;29078;41.932;25.554;2023-07-09T12:16:44;4.15;;;2.58;;
43487;SDS011;29078;41.932;25.554;2023-07-09T12:19:18;2.60;;;2.40;;
43487;SDS011;29078;41.932;25.554;2023-07-09T12:21:45;2.85;;;2.65;;
43487;SDS011;29078;41.932;25.554;2023-07-09T12:24:22;4.05;;;2.50;;
43487;SDS011;29078;41.932;25.554;2023-07-09T12:26:51;2.53;;;2.33;;
43487;SDS011;29078;41.932;25.554;2023-07-09T12:29:17;3.63;;;2.60;;
43487;SDS011;29078;41.932;25.554;2023-07-09T12:31:43;3.17;;;2.88;;
43487;SDS011;29078;41.932;25.554;2023-07-09T12:34:12;2.40;;;2.20;;
43487;SDS011;29078;41.932;25.554;2023-07-09T12:36:41;2.75;;;2.50;;
43487;SDS011;29078;41.932;25.554;2023-07-09T12:39:11;6.00;;;2.40;;
43487;SDS011;29078;41.932;25.554;2023-07-09T12:41:38;2.67;;;2.30;;
43487;SDS011;29078;41.932;25.554;2023-07-09T12:44:11;3.08;;;2.78;;
43487;SDS011;29078;41.932;25.554;2023-07-09T12:46:41;2.65;;;2.28;;
43487;SDS011;29078;41.932;25.554;2023-07-09T12:49:07;4.32;;;2.55;;
43487;SDS011;29078;41.932;25.554;2023-07-09T12:51:33;2.50;;;2.30;;
43487;SDS011;29078;41.932;25.554;2023-07-09T12:54:12;4.70;;;2.60;;
43487;SDS011;29078;41.932;25.554;2023-07-09T12:56:40;2.22;;;2.03;;
43487;SDS011;29078;41.932;25.554;2023-07-09T12:59:13;2.72;;;2.30;;
43487;SDS011;29078;41.932;25.554;2023-07-09T13:01:47;3.42;;;2.60;;
43487;SDS011;29078;41.932;25.554;2023-07-09T13:04:32;2.97;;;2.20;;
43487;SDS011;29078;41.932;25.554;2023-07-09T13:07:03;2.90;;;2.53;;
43487;SDS011;29078;41.932;25.554;2023-07-09T13:09:29;2.58;;;2.30;;
43487;SDS011;29078;41.932;25.554;2023-07-09T13:11:55;2.78;;;2.30;;
43487;SDS011;29078;41.932;25.554;2023-07-09T13:14:26;3.75;;;2.30;;
43487;SDS011;29078;41.932;25.554;2023-07-09T13:17:01;2.80;;;2.50;;
43487;SDS011;29078;41.932;25.554;2023-07-09T13:19:30;5.13;;;2.35;;
43487;SDS011;29078;41.932;25.554;2023-07-09T13:21:56;2.88;;;2.08;;
43487;SDS011;29078;41.932;25.554;2023-07-09T13:24:40;3.10;;;2.30;;
43487;SDS011;29078;41.932;25.554;2023-07-09T13:27:07;4.25;;;2.53;;
43487;SDS011;29078;41.932;25.554;2023-07-09T13:32:02;4.63;;;2.65;;
43487;SDS011;29078;41.932;25.554;2023-07-09T13:34:28;3.13;;;2.58;;
43487;SDS011;29078;41.932;25.554;2023-07-09T13:36:58;2.53;;;2.30;;
43487;SDS011;29078;41.932;25.554;2023-07-09T13:39:24;5.53;;;2.58;;
43487;SDS011;29078;41.932;25.554;2023-07-09T13:41:50;4.40;;;2.55;;
43487;SDS011;29078;41.932;25.554;2023-07-09T13:44:22;2.78;;;2.30;;
43487;SDS011;29078;41.932;25.554;2023-07-09T13:46:52;4.10;;;2.67;;
43487;SDS011;29078;41.932;25.554;2023-07-09T13:49:20;3.10;;;2.47;;
43487;SDS011;29078;41.932;25.554;2023-07-09T13:51:50;3.13;;;2.47;;
43487;SDS011;29078;41.932;25.554;2023-07-09T13:54:18;3.13;;;2.30;;
43487;SDS011;29078;41.932;25.554;2023-07-09T13:56:46;3.72;;;2.45;;
43487;SDS011;29078;41.932;25.554;2023-07-09T13:59:18;3.42;;;2.58;;
43487;SDS011;29078;41.932;25.554;2023-07-09T14:01:51;3.58;;;2.78;;
43487;SDS011;29078;41.932;25.554;2023-07-09T14:04:19;3.08;;;2.63;;
43487;SDS011;29078;41.932;25.554;2023-07-09T14:06:45;3.50;;;2.50;;
43487;SDS011;29078;41.932;25.554;2023-07-09T14:09:11;2.92;;;2.65;;
43487;SDS011;29078;41.932;25.554;2023-07-09T14:16:43;5.55;;;2.55;;
43487;SDS011;29078;41.932;25.554;2023-07-09T14:19:12;5.22;;;3.28;;
43487;SDS011;29078;41.932;25.554;2023-07-09T14:21:39;6.28;;;2.55;;
43487;SDS011;29078;41.932;25.554;2023-07-09T14:24:47;5.00;;;3.40;;
43487;SDS011;29078;41.932;25.554;2023-07-09T14:26:57;2.97;;;2.40;;
43487;SDS011;29078;41.932;25.554;2023-07-09T14:29:23;7.70;;;5.22;;
43487;SDS011;29078;41.932;25.554;2023-07-09T14:31:49;5.45;;;3.78;;
43487;SDS011;29078;41.932;25.554;2023-07-09T14:36:47;9.05;;;5.95;;
43487;SDS011;29078;41.932;25.554;2023-07-09T14:39:13;5.20;;;3.85;;
43487;SDS011;29078;41.932;25.554;2023-07-09T14:41:39;3.88;;;3.25;;
43487;SDS011;29078;41.932;25.554;2023-07-09T14:46:44;2.95;;;2.40;;
43487;SDS011;29078;41.932;25.554;2023-07-09T14:49:10;4.18;;;2.75;;
43487;SDS011;29078;41.932;25.554;2023-07-09T14:51:35;4.72;;;3.13;;
43487;SDS011;29078;41.932;25.554;2023-07-09T14:54:00;5.57;;;3.20;;
43487;SDS011;29078;41.932;25.554;2023-07-09T14:56:26;3.08;;;2.70;;
43487;SDS011;29078;41.932;25.554;2023-07-09T14:58:52;4.03;;;3.05;;
43487;SDS011;29078;41.932;25.554;2023-07-09T15:01:18;3.10;;;2.70;;
43487;SDS011;29078;41.932;25.554;2023-07-09T15:03:45;3.83;;;2.95;;
43487;SDS011;29078;41.932;25.554;2023-07-09T15:06:11;4.18;;;3.30;;
43487;SDS011;29078;41.932;25.554;2023-07-09T15:08:36;3.53;;;3.00;;
43487;SDS011;29078;41.932;25.554;2023-07-09T15:11:02;3.45;;;2.90;;
43487;SDS011;29078;41.932;25.554;2023-07-09T15:13:31;5.50;;;3.20;;
43487;SDS011;29078;41.932;25.554;2023-07-09T15:15:59;3.85;;;2.70;;
43487;SDS011;29078;41.932;25.554;2023-07-09T15:18:25;7.22;;;2.83;;
43487;SDS011;29078;41.932;25.554;2023-07-09T15:20:51;3.00;;;2.78;;
43487;SDS011;29078;41.932;25.554;2023-07-09T15:23:20;4.15;;;2.78;;
43487;SDS011;29078;41.932;25.554;2023-07-09T15:25:47;4.60;;;2.97;;
43487;SDS011;29078;41.932;25.554;2023-07-09T15:28:13;3.40;;;3.10;;
43487;SDS011;29078;41.932;25.554;2023-07-09T15:30:39;3.67;;;2.83;;
43487;SDS011;29078;41.932;25.554;2023-07-09T15:33:05;2.58;;;2.35;;
43487;SDS011;29078;41.932;25.554;2023-07-09T15:35:38;3.33;;;2.92;;
43487;SDS011;29078;41.932;25.554;2023-07-09T15:38:36;4.13;;;3.10;;
43487;SDS011;29078;41.932;25.554;2023-07-09T15:40:59;3.50;;;2.92;;
43487;SDS011;29078;41.932;25.554;2023-07-09T15:43:25;4.47;;;2.92;;
43487;SDS011;29078;41.932;25.554;2023-07-09T15:45:51;5.53;;;3.53;;